| time (UTC) | temp F | wind direction | speed knots | gust knots | rain 1hr in | rain 24hr in | rain mn in | humidity % | barometer mb |
| 20260509030218 | 76 | 0 | 0.0 | 0.0 | 0.00 | 0.01 | 0.01 | 90 | 1009.2 |
| 20260509023003 | 75 | 0 | 0.0 | 0.0 | 0.00 | 0.01 | 0.01 | 90 | 1008.6 |
| 20260509020004 | 75 | 148 | 0.0 | 0.9 | 0.00 | 0.01 | 0.01 | 90 | 1008.5 |
| 20260509013217 | 75 | 0 | 0.0 | 0.0 | 0.00 | 0.01 | 0.01 | 89 | 1008.4 |
| 20260509010004 | 75 | 0 | 0.0 | 0.0 | 0.00 | 0.01 | 0.01 | 89 | 1008.6 |
| 20260509003003 | 75 | 149 | 0.0 | 3.5 | 0.00 | 0.01 | 0.01 | 88 | 1008.6 |
| 20260509000004 | 76 | 292 | 0.0 | 2.6 | 0.00 | 0.01 | 0.01 | 87 | 1008.3 |
| 20260508233003 | 76 | 0 | 0.0 | 0.0 | 0.00 | 0.01 | 0.01 | 85 | 1008.9 |
| 20260508230003 | 76 | 130 | 0.0 | 2.6 | 0.00 | 0.01 | 0.01 | 84 | 1008.7 |
| 20260508223003 | 76 | 13 | 0.0 | 1.7 | 0.00 | 0.01 | 0.01 | 84 | 1008.3 |
| 20260508220004 | 76 | 0 | 0.0 | 0.0 | 0.00 | 0.01 | 0.01 | 84 | 1008.7 |
| 20260508213004 | 76 | 106 | 0.0 | 1.7 | 0.00 | 0.01 | 0.01 | 84 | 1009.1 |
| 20260508210003 | 76 | 120 | 0.0 | 1.7 | 0.00 | 0.01 | 0.01 | 85 | 1009.2 |
| 20260508203003 | 75 | 114 | 0.0 | 3.5 | 0.00 | 0.01 | 0.01 | 86 | 1009.0 |
| 20260508200004 | 74 | 66 | 0.0 | 0.9 | 0.00 | 0.01 | 0.01 | 87 | 1009.9 |
| 20260508193217 | 73 | 326 | 0.0 | 0.9 | 0.00 | 0.01 | 0.01 | 88 | 1010.2 |
| 20260508190218 | 72 | 141 | 0.0 | 2.6 | 0.00 | 0.01 | 0.01 | 91 | 1010.1 |
| 20260508183003 | 70 | 0 | 0.0 | 0.0 | 0.00 | 0.01 | 0.01 | 91 | 1010.5 |
| 20260508180004 | 69 | 0 | 0.0 | 0.0 | 0.00 | 0.01 | 0.01 | 90 | 1011.1 |
| 20260508173003 | 69 | 0 | 0.0 | 0.0 | 0.00 | 0.01 | 0.01 | 89 | 1011.4 |
| 20260508170004 | 70 | 27 | 0.0 | 1.7 | 0.00 | 0.01 | 0.01 | 89 | 1011.4 |
| 20260508163003 | 69 | 0 | 0.0 | 0.0 | 0.00 | 0.01 | 0.01 | 88 | 1012.2 |
| 20260508160004 | 69 | 356 | 0.0 | 2.6 | 0.00 | 0.01 | 0.01 | 88 | 1012.7 |
| 20260508153003 | 69 | 350 | 0.0 | 4.3 | 0.00 | 0.01 | 0.01 | 89 | 1012.5 |
| 20260508150217 | 68 | 304 | 0.0 | 0.9 | 0.01 | 0.01 | 0.01 | 89 | 1012.3 |
| 20260508143003 | 68 | 355 | 0.0 | 0.9 | 0.01 | 0.01 | 0.01 | 89 | 1012.4 |
| 20260508140004 | 68 | 0 | 0.0 | 0.0 | 0.00 | 0.00 | 0.00 | 88 | 1012.4 |
| 20260508133003 | 68 | 0 | 0.0 | 0.0 | 0.00 | 0.00 | 0.00 | 88 | 1012.4 |
| 20260508130004 | 68 | 0 | 0.0 | 0.0 | 0.00 | 0.00 | 0.00 | 88 | 1012.5 |
| 20260508123004 | 68 | 333 | 0.0 | 2.6 | 0.00 | 0.00 | 0.00 | 90 | 1012.4 |
| 20260508120004 | 69 | 323 | 0.0 | 2.6 | 0.00 | 0.00 | 0.00 | 90 | 1012.2 |
| 20260508113004 | 69 | 0 | 0.0 | 0.0 | 0.00 | 0.00 | 0.00 | 90 | 1012.2 |
| 20260508110004 | 69 | 0 | 0.0 | 0.0 | 0.00 | 0.00 | 0.00 | 90 | 1012.3 |
| 20260508103004 | 70 | 0 | 0.0 | 0.0 | 0.00 | 0.00 | 0.00 | 89 | 1011.4 |
| 20260508100217 | 70 | 0 | 0.0 | 0.0 | 0.00 | 0.00 | 0.00 | 88 | 1011.8 |
| 20260508093003 | 71 | 0 | 0.0 | 0.0 | 0.00 | 0.00 | 0.00 | 86 | 1012.0 |
| 20260508090004 | 73 | 0 | 0.0 | 0.0 | 0.00 | 0.00 | 0.00 | 82 | 1012.0 |
| 20260508083004 | 73 | 0 | 0.0 | 0.0 | 0.00 | 0.00 | 0.00 | 80 | 1012.0 |
| 20260508080004 | 73 | 0 | 0.0 | 0.0 | 0.00 | 0.00 | 0.00 | 80 | 1011.9 |
| 20260508073003 | 73 | 0 | 0.0 | 0.0 | 0.00 | 0.00 | 0.00 | 79 | 1012.1 |
| 20260508070004 | 73 | 0 | 0.0 | 0.0 | 0.00 | 0.00 | 0.00 | 78 | 1012.2 |
| 20260508063218 | 74 | 29 | 0.0 | 1.7 | 0.00 | 0.00 | 0.00 | 78 | 1012.3 |
| 20260508060003 | 74 | 351 | 0.0 | 2.6 | 0.00 | 0.00 | 0.00 | 79 | 1012.9 |
| 20260508053217 | 74 | 44 | 0.0 | 0.9 | 0.00 | 0.00 | 0.00 | 79 | 1012.4 |
| 20260508050004 | 74 | 22 | 0.0 | 1.7 | 0.00 | 0.00 | 0.00 | 77 | 1012.2 |
| 20260508043004 | 75 | 0 | 0.0 | 0.0 | 0.00 | 0.00 | 0.00 | 76 | 1011.8 |
| 20260508040219 | 76 | 0 | 0.0 | 0.0 | 0.00 | 0.00 | 0.00 | 74 | 1013.0 |
| 20260508033003 | 76 | 2 | 0.0 | 0.9 | 0.00 | 0.00 | 0.00 | 73 | 1013.3 |